createdAt,value
2019-02-14T00:01:26.875Z,29.93
2019-02-14T00:03:56.762Z,31.20
2019-02-14T00:06:26.679Z,33.20
2019-02-14T00:08:56.942Z,33.90
2019-02-14T00:11:27.348Z,33.37
2019-02-14T00:13:57.864Z,31.17
2019-02-14T00:16:27.774Z,33.13
2019-02-14T00:18:58.089Z,31.70
2019-02-14T00:21:28.315Z,30.97
2019-02-14T00:23:58.535Z,32.23
2019-02-14T00:26:28.984Z,31.07
2019-02-14T00:28:59.516Z,33.27
2019-02-14T00:31:29.712Z,29.30
2019-02-14T00:33:59.637Z,32.27
2019-02-14T00:36:30.375Z,32.63
2019-02-14T00:39:00.475Z,30.90
2019-02-14T00:41:30.806Z,31.57
2019-02-14T00:44:01.248Z,33.57
2019-02-14T00:46:31.462Z,31.63
2019-02-14T00:49:01.470Z,32.50
2019-02-14T00:51:31.487Z,29.80
2019-02-14T00:54:01.712Z,30.00
2019-02-14T00:56:31.612Z,30.27
2019-02-14T00:59:01.846Z,26.70
2019-02-14T01:01:31.767Z,28.07
2019-02-14T01:04:01.475Z,28.03
2019-02-14T01:06:31.806Z,27.47
2019-02-14T01:09:01.919Z,25.73
2019-02-14T01:11:32.346Z,26.33
2019-02-14T01:14:02.756Z,26.97
2019-02-14T01:16:32.474Z,30.60
2019-02-14T01:19:02.917Z,30.30
2019-02-14T01:21:33.419Z,29.63
2019-02-14T01:24:03.754Z,29.43
2019-02-14T01:26:33.777Z,27.07
2019-02-14T01:29:03.699Z,28.57
2019-02-14T01:31:34.321Z,28.30
2019-02-14T01:34:04.838Z,26.17
2019-02-14T01:36:35.366Z,26.87
2019-02-14T01:39:06.405Z,27.33
2019-02-14T01:41:36.846Z,26.43
2019-02-14T01:44:06.863Z,29.00
2019-02-14T01:46:36.760Z,29.67
2019-02-14T01:49:06.675Z,26.63
2019-02-14T01:51:36.921Z,26.13
2019-02-14T01:54:07.216Z,26.37
2019-02-14T01:56:38.067Z,25.23
2019-02-14T01:59:07.872Z,23.93
2019-02-14T02:01:37.676Z,23.17
2019-02-14T02:04:08.636Z,25.80
2019-02-14T02:06:57.691Z,24.90
2019-02-14T02:09:35.473Z,23.67
2019-02-14T02:24:15.613Z,23.03
2019-02-14T02:26:46.139Z,27.17
2019-02-14T02:29:16.266Z,25.47
2019-02-14T02:31:50.288Z,23.47
2019-02-14T02:34:20.072Z,26.17
2019-02-14T02:36:52.863Z,22.03
2019-02-14T02:39:25.428Z,22.80
2019-02-14T02:41:55.656Z,21.60
2019-02-14T02:44:26.910Z,22.63
2019-02-14T02:46:57.430Z,20.20
2019-02-14T02:49:29.467Z,20.03
2019-02-14T02:52:05.552Z,21.50
2019-02-14T02:54:47.056Z,23.17
2019-02-14T02:57:21.462Z,20.73
2019-02-14T02:59:52.314Z,24.23
2019-02-14T03:02:28.655Z,27.17
2019-02-14T03:05:05.759Z,25.17
2019-02-14T03:07:41.999Z,27.73
2019-02-14T03:10:18.698Z,23.87
2019-02-14T03:12:56.586Z,24.83
2019-02-14T03:15:33.105Z,28.87
2019-02-14T03:18:09.110Z,25.63
2019-02-14T03:20:45.465Z,29.07
2019-02-14T03:23:23.283Z,26.07
2019-02-14T03:26:00.449Z,22.80
2019-02-14T03:28:36.737Z,21.83
2019-02-14T03:31:13.088Z,22.00
2019-02-14T03:33:48.126Z,22.47
2019-02-14T03:43:05.477Z,24.03
2019-02-14T03:45:55.787Z,28.93
2019-02-14T03:48:29.086Z,23.80
2019-02-14T03:51:12.304Z,24.90
2019-02-14T04:10:11.504Z,31.93
2019-02-14T04:12:43.871Z,33.60
2019-02-14T04:15:16.356Z,32.90
2019-02-14T04:17:46.763Z,30.80
2019-02-14T04:20:18.024Z,37.00
2019-02-14T04:22:49.866Z,30.77
2019-02-14T04:25:20.817Z,33.80
2019-02-14T04:27:51.742Z,39.53
2019-02-14T04:30:26.489Z,36.93
2019-02-14T04:32:59.675Z,37.37
2019-02-14T04:35:32.756Z,33.33
2019-02-14T04:38:04.090Z,37.30
2019-02-14T04:40:34.942Z,38.73
2019-02-14T04:43:06.896Z,32.90
2019-02-14T04:45:40.535Z,43.73
2019-02-14T04:48:10.717Z,36.93
2019-02-14T04:50:42.614Z,33.53
2019-02-14T04:53:12.815Z,38.77
2019-02-14T04:55:43.337Z,29.80
2019-02-14T04:58:13.876Z,34.20
2019-02-14T05:00:44.493Z,40.37
2019-02-14T05:03:15.743Z,29.63
2019-02-14T05:05:46.882Z,30.80
2019-02-14T05:08:21.925Z,24.07
2019-02-14T05:10:54.796Z,24.83
2019-02-14T05:13:29.027Z,27.37
2019-02-14T05:16:10.511Z,29.87
2019-02-14T05:18:43.485Z,23.63
2019-02-14T05:21:15.871Z,26.40
2019-02-14T05:23:46.288Z,31.67
2019-02-14T05:26:22.609Z,37.17
2019-02-14T05:28:52.984Z,40.03
2019-02-14T05:31:23.415Z,37.70
2019-02-14T05:33:54.018Z,28.40
2019-02-14T05:36:24.466Z,30.87
2019-02-14T05:38:54.789Z,33.43
2019-02-14T05:41:28.370Z,37.57
2019-02-14T05:44:03.724Z,39.20
2019-02-14T05:46:33.857Z,34.53
2019-02-14T05:49:05.687Z,38.33
2019-02-14T05:51:37.451Z,37.10
2019-02-14T05:54:07.665Z,35.57
2019-02-14T05:56:37.806Z,29.40
2019-02-14T05:59:09.455Z,34.17
2019-02-14T06:01:39.266Z,40.63
2019-02-14T06:04:09.594Z,34.73
2019-02-14T06:06:41.874Z,37.90
2019-02-14T06:09:15.675Z,44.90
2019-02-14T06:11:49.669Z,42.87
2019-02-14T06:14:21.852Z,40.70
2019-02-14T06:16:52.370Z,44.00
2019-02-14T06:19:30.489Z,36.10
2019-02-14T06:22:07.870Z,45.63
2019-02-14T06:24:38.489Z,42.80
2019-02-14T06:27:10.657Z,40.30
2019-02-14T06:29:43.769Z,36.17
2019-02-14T06:32:13.759Z,37.00
2019-02-14T06:34:44.510Z,54.23
2019-02-14T06:37:18.119Z,54.33
2019-02-14T06:39:49.088Z,40.70
2019-02-14T06:42:20.898Z,37.20
2019-02-14T06:44:51.748Z,42.90
2019-02-14T06:47:22.456Z,42.20
2019-02-14T06:49:53.290Z,43.67
2019-02-14T06:52:27.722Z,49.53
2019-02-14T07:20:46.866Z,49.60
2019-02-14T07:23:19.211Z,39.07
2019-02-14T07:25:49.327Z,38.23
2019-02-14T07:45:49.661Z,37.23
2019-02-14T07:48:20.092Z,41.27
2019-02-14T07:50:53.900Z,45.33
2019-02-14T07:53:24.230Z,36.33
2019-02-14T07:56:00.099Z,43.90
2019-02-14T07:58:31.734Z,37.70
2019-02-14T08:04:00.329Z,36.40
2019-02-14T08:06:31.380Z,39.93
2019-02-14T08:09:01.696Z,40.37
2019-02-14T08:11:33.768Z,37.40
2019-02-14T08:14:11.076Z,44.13
2019-02-14T08:16:43.418Z,40.20
2019-02-14T08:19:14.468Z,47.07
2019-02-14T08:21:46.836Z,39.77
2019-02-14T08:24:20.336Z,50.20
2019-02-14T08:27:00.286Z,36.97
2019-02-14T08:29:33.477Z,43.43
2019-02-14T08:32:12.099Z,49.80
2019-02-14T08:34:42.719Z,48.80
2019-02-14T08:37:13.665Z,39.00
2019-02-14T08:40:02.726Z,47.43
2019-02-14T08:42:36.735Z,42.53
2019-02-14T08:45:09.412Z,42.83
2019-02-14T08:47:39.729Z,40.37
2019-02-14T08:50:10.160Z,48.10
2019-02-14T08:52:40.074Z,40.87
2019-02-14T08:55:12.116Z,44.70
2019-02-14T08:57:43.699Z,47.67
2019-02-14T09:00:16.058Z,42.57
2019-02-14T09:02:46.792Z,35.07
2019-02-14T09:05:28.496Z,36.67
2019-02-14T09:08:11.513Z,42.90
2019-02-14T09:10:41.894Z,38.30
2019-02-14T09:13:17.133Z,32.67
2019-02-14T09:15:46.792Z,32.87
2019-02-14T09:18:20.480Z,30.43
2019-02-14T09:20:50.912Z,33.90
2019-02-14T09:23:21.243Z,30.37
2019-02-14T09:25:53.096Z,30.97
2019-02-14T09:28:23.437Z,29.00
2019-02-14T09:30:53.741Z,35.00
2019-02-14T09:33:24.264Z,33.10
2019-02-14T09:35:54.901Z,34.67
2019-02-14T09:38:25.440Z,39.13
2019-02-14T09:40:55.439Z,40.70
2019-02-14T09:43:29.795Z,45.90
2019-02-14T09:45:58.960Z,38.77
2019-02-14T09:48:29.073Z,42.80
2019-02-14T09:51:00.433Z,35.70
2019-02-14T09:53:34.743Z,32.67
2019-02-14T09:56:05.074Z,36.60
2019-02-14T09:58:34.883Z,30.40
2019-02-14T10:01:28.466Z,31.77
2019-02-14T10:03:59.825Z,32.27
2019-02-14T10:06:36.707Z,29.50
2019-02-14T10:09:06.489Z,28.43
2019-02-14T10:11:37.832Z,28.33
2019-02-14T10:14:08.479Z,28.13
2019-02-14T10:16:39.719Z,30.30
2019-02-14T10:19:10.441Z,25.93
2019-02-14T10:24:10.680Z,25.27
2019-02-14T10:26:40.716Z,29.20
2019-02-14T10:29:12.670Z,30.33
2019-02-14T10:31:43.311Z,28.73
2019-02-14T10:34:14.200Z,28.27
2019-02-14T10:36:44.488Z,32.93
2019-02-14T10:41:46.115Z,33.00
2019-02-14T10:46:43.800Z,24.53
2019-02-14T10:49:12.843Z,24.60
2019-02-14T10:51:43.751Z,27.30
2019-02-14T10:56:46.832Z,27.77
2019-02-14T10:59:20.032Z,24.43
2019-02-14T11:01:50.456Z,23.93
2019-02-14T11:04:20.679Z,31.17
2019-02-14T11:06:53.247Z,30.57
2019-02-14T11:09:28.280Z,34.33
2019-02-14T11:11:58.399Z,28.50
2019-02-14T11:14:29.488Z,30.43
2019-02-14T11:16:59.560Z,34.23
2019-02-14T11:19:29.672Z,36.40
2019-02-14T11:22:00.031Z,31.93
2019-02-14T11:24:34.432Z,31.50
2019-02-14T11:27:08.117Z,35.17
2019-02-14T11:29:39.304Z,36.70
2019-02-14T11:32:08.112Z,32.87
2019-02-14T11:34:38.072Z,28.87
2019-02-14T11:37:12.123Z,30.73
2019-02-14T11:39:45.802Z,28.07
2019-02-14T11:42:16.312Z,35.03
2019-02-14T11:44:45.400Z,33.57
2019-02-14T11:47:15.633Z,40.60
2019-02-14T11:49:47.080Z,39.93
2019-02-14T11:52:17.719Z,36.17
2019-02-14T11:54:47.720Z,38.33
2019-02-14T11:57:18.512Z,33.53
2019-02-14T11:59:48.888Z,31.80
2019-02-14T12:02:21.474Z,35.77
2019-02-14T12:04:53.585Z,40.10
2019-02-14T12:07:24.880Z,40.37
2019-02-14T12:09:57.800Z,42.77
2019-02-14T12:12:32.131Z,34.27
2019-02-14T12:17:31.504Z,37.67
2019-02-14T12:20:01.512Z,32.33
2019-02-14T12:22:33.591Z,32.17
2019-02-14T12:25:11.081Z,34.07
2019-02-14T12:30:13.400Z,31.53
2019-02-14T12:32:43.680Z,32.63
2019-02-14T12:35:15.240Z,28.83
2019-02-14T12:37:47.912Z,31.93
2019-02-14T12:40:18.840Z,27.33
2019-02-14T12:42:50.922Z,26.77
2019-02-14T12:45:37.935Z,28.67
2019-02-14T12:48:52.105Z,28.00
2019-02-14T12:54:18.432Z,29.07
2019-02-14T12:56:55.000Z,29.47
2019-02-14T12:59:40.672Z,30.03
2019-02-14T13:02:13.991Z,23.90
2019-02-14T13:04:44.711Z,25.00
2019-02-14T13:07:16.792Z,26.00
2019-02-14T13:12:20.520Z,29.57
2019-02-14T13:14:49.392Z,29.50
2019-02-14T13:17:19.112Z,29.17
2019-02-14T13:19:56.832Z,27.40
2019-02-14T13:22:26.524Z,25.10
2019-02-14T13:24:56.832Z,26.03
2019-02-14T13:29:56.847Z,25.30
2019-02-14T13:34:54.841Z,25.30
2019-02-14T13:40:21.705Z,26.97
2019-02-14T13:42:52.954Z,28.77
2019-02-14T13:45:24.833Z,30.77
2019-02-14T13:47:54.435Z,28.17
2019-02-14T13:50:24.874Z,26.60
2019-02-14T13:52:55.472Z,25.43
2019-02-14T13:55:26.001Z,24.07
2019-02-14T13:57:56.952Z,25.97
2019-02-14T14:00:27.768Z,25.57
2019-02-14T14:02:57.803Z,23.23
2019-02-14T14:05:33.556Z,27.37
2019-02-14T14:08:06.432Z,24.37
2019-02-14T14:10:38.480Z,24.67
2019-02-14T14:13:07.392Z,25.17
2019-02-14T14:15:39.235Z,24.50
2019-02-14T14:18:09.760Z,22.20
2019-02-14T14:20:47.872Z,24.70
2019-02-14T14:23:19.874Z,25.03
2019-02-14T14:28:31.639Z,26.83
2019-02-14T14:31:01.760Z,22.13
2019-02-14T14:33:31.792Z,25.83
2019-02-14T14:36:01.801Z,27.67
2019-02-14T14:38:32.233Z,26.03
2019-02-14T14:41:02.872Z,27.50
2019-02-14T14:43:39.833Z,25.80
2019-02-14T14:46:20.632Z,22.53
2019-02-14T14:48:51.032Z,25.13
2019-02-14T14:51:21.873Z,27.30
2019-02-14T14:53:55.361Z,25.93
2019-02-14T14:56:25.792Z,28.17
2019-02-14T14:59:01.673Z,30.47
2019-02-14T15:01:31.760Z,27.00
2019-02-14T15:04:02.399Z,29.93
2019-02-14T15:06:33.024Z,27.50
2019-02-14T15:09:03.952Z,23.53
2019-02-14T15:11:40.438Z,26.90
2019-02-14T15:14:11.881Z,26.77
2019-02-14T15:16:50.922Z,22.90
2019-02-14T15:19:21.031Z,23.70
2019-02-14T15:21:52.072Z,20.47
2019-02-14T15:24:24.840Z,23.73
2019-02-14T15:26:55.593Z,26.57
2019-02-14T15:29:26.226Z,22.30
2019-02-14T15:31:57.768Z,25.07
2019-02-14T15:34:34.233Z,32.00
2019-02-14T15:37:06.296Z,26.77
2019-02-14T15:39:40.800Z,24.73
2019-02-14T15:42:14.953Z,28.47
2019-02-14T15:44:47.200Z,28.13
2019-02-14T15:47:30.880Z,30.50
2019-02-14T15:50:03.853Z,26.00
2019-02-14T15:52:33.833Z,30.23
2019-02-14T15:55:03.762Z,31.33
2019-02-14T16:03:31.465Z,31.50
2019-02-14T16:06:05.975Z,31.60
2019-02-14T16:08:37.633Z,37.50
2019-02-14T16:11:14.173Z,32.67
2019-02-14T16:13:46.394Z,31.00
2019-02-14T16:16:17.026Z,30.53
2019-02-14T16:18:49.198Z,30.23
2019-02-14T16:21:22.442Z,28.67
2019-02-14T16:23:55.073Z,36.07
2019-02-14T16:26:26.082Z,32.57
2019-02-14T16:29:03.787Z,35.83
2019-02-14T16:31:47.001Z,38.63
2019-02-14T16:34:23.072Z,34.07
2019-02-14T16:37:06.115Z,38.50
2019-02-14T16:39:38.643Z,38.63
2019-02-14T16:42:14.834Z,34.13
2019-02-14T16:44:58.352Z,32.20
2019-02-14T17:08:18.399Z,39.00
2019-02-14T17:10:49.112Z,37.73
2019-02-14T17:13:20.985Z,40.40
2019-02-14T17:16:13.112Z,41.40
2019-02-14T17:18:54.481Z,41.07
2019-02-14T17:21:28.313Z,43.70
2019-02-14T17:23:59.553Z,46.10
2019-02-14T17:26:30.880Z,40.13
2019-02-14T17:29:02.942Z,39.77
2019-02-14T17:31:36.113Z,41.87
2019-02-14T17:34:06.865Z,43.67
2019-02-14T17:36:47.024Z,47.57
2019-02-14T17:42:20.953Z,57.50
2019-02-14T17:44:54.872Z,48.10
2019-02-14T17:47:25.512Z,45.63
2019-02-14T17:49:58.113Z,50.60
2019-02-14T17:52:27.976Z,56.30
2019-02-14T17:55:03.202Z,63.87
2019-02-14T17:57:39.162Z,57.97
2019-02-14T20:24:47.019Z,41.70
2019-02-14T21:28:30.740Z,53.77
2019-02-14T21:31:00.764Z,51.93
2019-02-14T21:33:34.767Z,50.17
2019-02-14T21:36:10.312Z,48.20
2019-02-14T21:38:38.796Z,40.30
2019-02-14T23:13:20.985Z,42.00
